sensor_id;sensor_type;location;lat;lon;timestamp;temperature;humidity
5621;DHT22;2832;50.864;12.186;2023-04-01T00:00:56;14.00;99.90
5621;DHT22;2832;50.864;12.186;2023-04-01T00:03:27;14.00;99.90
5621;DHT22;2832;50.864;12.186;2023-04-01T00:05:55;13.90;99.90
5621;DHT22;2832;50.864;12.186;2023-04-01T00:08:24;13.90;99.90
5621;DHT22;2832;50.864;12.186;2023-04-01T00:10:53;14.00;99.90
5621;DHT22;2832;50.864;12.186;2023-04-01T00:13:22;14.00;99.90
5621;DHT22;2832;50.864;12.186;2023-04-01T00:15:50;13.90;99.90
5621;DHT22;2832;50.864;12.186;2023-04-01T00:18:18;13.90;99.90
5621;DHT22;2832;50.864;12.186;2023-04-01T00:20:50;13.90;99.90
5621;DHT22;2832;50.864;12.186;2023-04-01T00:23:20;13.90;99.90
5621;DHT22;2832;50.864;12.186;2023-04-01T00:25:48;14.00;99.90
5621;DHT22;2832;50.864;12.186;2023-04-01T00:28:17;13.90;99.90
5621;DHT22;2832;50.864;12.186;2023-04-01T00:30:45;13.90;99.90
5621;DHT22;2832;50.864;12.186;2023-04-01T00:33:14;14.00;99.90
5621;DHT22;2832;50.864;12.186;2023-04-01T00:35:43;14.00;99.90
5621;DHT22;2832;50.864;12.186;2023-04-01T00:38:14;14.00;99.90
5621;DHT22;2832;50.864;12.186;2023-04-01T00:40:44;13.90;99.90
5621;DHT22;2832;50.864;12.186;2023-04-01T00:43:17;13.90;99.90
5621;DHT22;2832;50.864;12.186;2023-04-01T00:45:48;13.90;99.90
5621;DHT22;2832;50.864;12.186;2023-04-01T00:48:18;13.90;99.90
5621;DHT22;2832;50.864;12.186;2023-04-01T00:50:51;14.00;99.90
5621;DHT22;2832;50.864;12.186;2023-04-01T00:53:21;13.90;99.90
5621;DHT22;2832;50.864;12.186;2023-04-01T00:55:54;13.90;99.90
5621;DHT22;2832;50.864;12.186;2023-04-01T00:58:24;13.90;99.90
5621;DHT22;2832;50.864;12.186;2023-04-01T01:00:54;13.90;99.90
5621;DHT22;2832;50.864;12.186;2023-04-01T01:03:22;13.80;99.90
5621;DHT22;2832;50.864;12.186;2023-04-01T01:06:08;13.80;99.90
5621;DHT22;2832;50.864;12.186;2023-04-01T01:08:57;13.80;99.90
5621;DHT22;2832;50.864;12.186;2023-04-01T01:11:34;13.90;99.90
5621;DHT22;2832;50.864;12.186;2023-04-01T01:14:12;13.80;99.90
5621;DHT22;2832;50.864;12.186;2023-04-01T01:16:44;13.80;99.90
5621;DHT22;2832;50.864;12.186;2023-04-01T01:19:30;13.90;99.90
5621;DHT22;2832;50.864;12.186;2023-04-01T01:22:22;13.80;99.90
5621;DHT22;2832;50.864;12.186;2023-04-01T01:25:14;13.80;99.90
5621;DHT22;2832;50.864;12.186;2023-04-01T01:27:53;13.90;99.90
5621;DHT22;2832;50.864;12.186;2023-04-01T01:30:37;13.90;99.90
5621;DHT22;2832;50.864;12.186;2023-04-01T01:33:24;13.90;99.90
5621;DHT22;2832;50.864;12.186;2023-04-01T01:35:56;13.90;99.90
5621;DHT22;2832;50.864;12.186;2023-04-01T01:38:28;13.80;99.90
5621;DHT22;2832;50.864;12.186;2023-04-01T01:40:59;13.80;99.90
5621;DHT22;2832;50.864;12.186;2023-04-01T01:43:30;13.80;99.90
5621;DHT22;2832;50.864;12.186;2023-04-01T01:46:01;13.80;99.90
5621;DHT22;2832;50.864;12.186;2023-04-01T01:48:33;13.80;99.90
5621;DHT22;2832;50.864;12.186;2023-04-01T01:51:05;13.80;99.90
5621;DHT22;2832;50.864;12.186;2023-04-01T01:53:33;13.80;99.90
5621;DHT22;2832;50.864;12.186;2023-04-01T01:56:03;13.90;99.90
5621;DHT22;2832;50.864;12.186;2023-04-01T01:58:33;13.80;99.90
5621;DHT22;2832;50.864;12.186;2023-04-01T02:01:08;13.70;99.90
5621;DHT22;2832;50.864;12.186;2023-04-01T02:03:40;13.70;99.90
5621;DHT22;2832;50.864;12.186;2023-04-01T02:06:14;13.80;99.90
5621;DHT22;2832;50.864;12.186;2023-04-01T02:08:46;13.70;99.90
5621;DHT22;2832;50.864;12.186;2023-04-01T02:11:16;13.70;99.90
5621;DHT22;2832;50.864;12.186;2023-04-01T02:13:50;13.80;99.90
5621;DHT22;2832;50.864;12.186;2023-04-01T02:16:22;13.80;99.90
5621;DHT22;2832;50.864;12.186;2023-04-01T02:18:53;13.80;99.90
5621;DHT22;2832;50.864;12.186;2023-04-01T02:21:27;13.80;99.90
5621;DHT22;2832;50.864;12.186;2023-04-01T02:23:59;13.80;99.90
5621;DHT22;2832;50.864;12.186;2023-04-01T02:26:28;13.80;99.90
5621;DHT22;2832;50.864;12.186;2023-04-01T02:28:57;13.80;99.90
5621;DHT22;2832;50.864;12.186;2023-04-01T02:31:27;13.80;99.90
5621;DHT22;2832;50.864;12.186;2023-04-01T02:33:55;13.80;99.90
5621;DHT22;2832;50.864;12.186;2023-04-01T02:36:26;13.70;99.90
5621;DHT22;2832;50.864;12.186;2023-04-01T02:38:55;13.70;99.90
5621;DHT22;2832;50.864;12.186;2023-04-01T02:41:28;13.70;99.90
5621;DHT22;2832;50.864;12.186;2023-04-01T02:43:57;13.70;99.90
5621;DHT22;2832;50.864;12.186;2023-04-01T02:46:25;13.70;99.90
5621;DHT22;2832;50.864;12.186;2023-04-01T02:48:53;13.70;99.90
5621;DHT22;2832;50.864;12.186;2023-04-01T02:51:21;13.80;99.90
5621;DHT22;2832;50.864;12.186;2023-04-01T02:53:50;13.80;99.90
5621;DHT22;2832;50.864;12.186;2023-04-01T02:56:18;13.80;99.90
5621;DHT22;2832;50.864;12.186;2023-04-01T02:58:48;13.80;99.90
5621;DHT22;2832;50.864;12.186;2023-04-01T03:01:15;13.70;99.90
5621;DHT22;2832;50.864;12.186;2023-04-01T03:03:44;13.70;99.90
5621;DHT22;2832;50.864;12.186;2023-04-01T03:06:14;13.80;99.90
5621;DHT22;2832;50.864;12.186;2023-04-01T03:08:42;13.80;99.90
5621;DHT22;2832;50.864;12.186;2023-04-01T03:11:12;13.80;99.90
5621;DHT22;2832;50.864;12.186;2023-04-01T03:13:41;13.70;99.90
5621;DHT22;2832;50.864;12.186;2023-04-01T03:16:09;13.70;99.90
5621;DHT22;2832;50.864;12.186;2023-04-01T03:18:37;13.70;99.90
5621;DHT22;2832;50.864;12.186;2023-04-01T03:21:15;13.70;99.90
5621;DHT22;2832;50.864;12.186;2023-04-01T03:23:43;13.70;99.90
5621;DHT22;2832;50.864;12.186;2023-04-01T03:26:13;13.70;99.90
5621;DHT22;2832;50.864;12.186;2023-04-01T03:28:41;13.70;99.90
5621;DHT22;2832;50.864;12.186;2023-04-01T03:31:09;13.70;99.90
5621;DHT22;2832;50.864;12.186;2023-04-01T03:33:37;13.70;99.90
5621;DHT22;2832;50.864;12.186;2023-04-01T03:36:05;13.70;99.90
5621;DHT22;2832;50.864;12.186;2023-04-01T03:38:34;13.70;99.90
5621;DHT22;2832;50.864;12.186;2023-04-01T03:41:02;13.60;99.90
5621;DHT22;2832;50.864;12.186;2023-04-01T03:43:33;13.60;99.90
5621;DHT22;2832;50.864;12.186;2023-04-01T03:46:02;13.60;99.90
5621;DHT22;2832;50.864;12.186;2023-04-01T03:48:29;13.60;99.90
5621;DHT22;2832;50.864;12.186;2023-04-01T03:50:57;13.60;99.90
5621;DHT22;2832;50.864;12.186;2023-04-01T03:53:25;13.60;99.90
5621;DHT22;2832;50.864;12.186;2023-04-01T03:55:53;13.70;99.90
5621;DHT22;2832;50.864;12.186;2023-04-01T03:58:22;13.70;99.90
5621;DHT22;2832;50.864;12.186;2023-04-01T04:00:51;13.70;99.90
5621;DHT22;2832;50.864;12.186;2023-04-01T04:03:19;13.60;99.90
5621;DHT22;2832;50.864;12.186;2023-04-01T04:05:47;13.60;99.90
5621;DHT22;2832;50.864;12.186;2023-04-01T04:08:16;13.60;99.90
5621;DHT22;2832;50.864;12.186;2023-04-01T04:10:43;13.60;99.90
5621;DHT22;2832;50.864;12.186;2023-04-01T04:13:12;13.60;99.90
5621;DHT22;2832;50.864;12.186;2023-04-01T04:15:40;13.70;99.90
5621;DHT22;2832;50.864;12.186;2023-04-01T04:18:09;13.60;99.90
5621;DHT22;2832;50.864;12.186;2023-04-01T04:20:37;13.60;99.90
5621;DHT22;2832;50.864;12.186;2023-04-01T04:23:11;13.60;99.90
5621;DHT22;2832;50.864;12.186;2023-04-01T04:25:46;13.60;99.90
5621;DHT22;2832;50.864;12.186;2023-04-01T04:28:20;13.60;99.90
5621;DHT22;2832;50.864;12.186;2023-04-01T04:30:48;13.60;99.90
5621;DHT22;2832;50.864;12.186;2023-04-01T04:33:19;13.50;99.90
5621;DHT22;2832;50.864;12.186;2023-04-01T04:35:48;13.50;99.90
5621;DHT22;2832;50.864;12.186;2023-04-01T04:38:18;13.60;99.90
5621;DHT22;2832;50.864;12.186;2023-04-01T04:40:46;13.60;99.90
5621;DHT22;2832;50.864;12.186;2023-04-01T04:43:15;13.60;99.90
5621;DHT22;2832;50.864;12.186;2023-04-01T04:45:44;13.60;99.90
5621;DHT22;2832;50.864;12.186;2023-04-01T04:48:14;13.60;99.90
5621;DHT22;2832;50.864;12.186;2023-04-01T04:50:46;13.50;99.90
5621;DHT22;2832;50.864;12.186;2023-04-01T04:53:15;13.50;99.90
5621;DHT22;2832;50.864;12.186;2023-04-01T04:55:44;13.50;99.90
5621;DHT22;2832;50.864;12.186;2023-04-01T04:58:12;13.50;99.90
5621;DHT22;2832;50.864;12.186;2023-04-01T05:00:40;13.50;99.90
5621;DHT22;2832;50.864;12.186;2023-04-01T05:03:16;13.50;99.90
5621;DHT22;2832;50.864;12.186;2023-04-01T05:05:55;13.60;99.90
5621;DHT22;2832;50.864;12.186;2023-04-01T05:08:23;13.60;99.90
5621;DHT22;2832;50.864;12.186;2023-04-01T05:10:51;13.60;99.90
5621;DHT22;2832;50.864;12.186;2023-04-01T05:13:19;13.50;99.90
5621;DHT22;2832;50.864;12.186;2023-04-01T05:15:47;13.50;99.90
5621;DHT22;2832;50.864;12.186;2023-04-01T05:18:15;13.50;99.90
5621;DHT22;2832;50.864;12.186;2023-04-01T05:20:47;13.50;99.90
5621;DHT22;2832;50.864;12.186;2023-04-01T05:23:16;13.50;99.90
5621;DHT22;2832;50.864;12.186;2023-04-01T05:25:47;13.50;99.90
5621;DHT22;2832;50.864;12.186;2023-04-01T05:28:16;13.50;99.90
5621;DHT22;2832;50.864;12.186;2023-04-01T05:30:44;13.50;99.90
5621;DHT22;2832;50.864;12.186;2023-04-01T05:33:16;13.60;99.90
5621;DHT22;2832;50.864;12.186;2023-04-01T05:35:45;13.50;99.90
5621;DHT22;2832;50.864;12.186;2023-04-01T05:38:12;13.50;99.90
5621;DHT22;2832;50.864;12.186;2023-04-01T05:40:42;13.50;99.90
5621;DHT22;2832;50.864;12.186;2023-04-01T05:43:10;13.50;99.90
5621;DHT22;2832;50.864;12.186;2023-04-01T05:45:37;13.50;99.90
5621;DHT22;2832;50.864;12.186;2023-04-01T05:48:06;13.50;99.90
5621;DHT22;2832;50.864;12.186;2023-04-01T05:50:33;13.50;99.90
5621;DHT22;2832;50.864;12.186;2023-04-01T05:53:01;13.50;99.90
5621;DHT22;2832;50.864;12.186;2023-04-01T05:55:29;13.50;99.90
5621;DHT22;2832;50.864;12.186;2023-04-01T05:57:58;13.50;99.90
5621;DHT22;2832;50.864;12.186;2023-04-01T06:00:26;13.50;99.90
5621;DHT22;2832;50.864;12.186;2023-04-01T06:02:58;13.40;99.90
5621;DHT22;2832;50.864;12.186;2023-04-01T06:05:30;13.40;99.90
5621;DHT22;2832;50.864;12.186;2023-04-01T06:08:09;13.40;99.90
5621;DHT22;2832;50.864;12.186;2023-04-01T06:10:50;13.40;99.90
5621;DHT22;2832;50.864;12.186;2023-04-01T06:13:30;13.40;99.90
5621;DHT22;2832;50.864;12.186;2023-04-01T06:16:06;13.50;99.90
5621;DHT22;2832;50.864;12.186;2023-04-01T06:19:00;13.40;99.90
5621;DHT22;2832;50.864;12.186;2023-04-01T06:22:06;13.40;99.90
5621;DHT22;2832;50.864;12.186;2023-04-01T06:24:58;13.50;99.90
5621;DHT22;2832;50.864;12.186;2023-04-01T06:27:42;13.50;99.90
5621;DHT22;2832;50.864;12.186;2023-04-01T06:30:30;13.50;99.90
5621;DHT22;2832;50.864;12.186;2023-04-01T06:33:20;13.50;99.90
5621;DHT22;2832;50.864;12.186;2023-04-01T06:36:15;13.40;99.90
5621;DHT22;2832;50.864;12.186;2023-04-01T06:39:01;13.40;99.90
5621;DHT22;2832;50.864;12.186;2023-04-01T06:41:53;13.40;99.90
5621;DHT22;2832;50.864;12.186;2023-04-01T06:44:33;13.50;99.90
5621;DHT22;2832;50.864;12.186;2023-04-01T06:47:18;13.50;99.90
5621;DHT22;2832;50.864;12.186;2023-04-01T06:49:53;13.50;99.90
5621;DHT22;2832;50.864;12.186;2023-04-01T06:52:27;13.50;99.90
5621;DHT22;2832;50.864;12.186;2023-04-01T06:55:00;13.50;99.90
5621;DHT22;2832;50.864;12.186;2023-04-01T06:57:34;13.50;99.90
5621;DHT22;2832;50.864;12.186;2023-04-01T07:00:11;13.50;99.90
5621;DHT22;2832;50.864;12.186;2023-04-01T07:02:45;13.40;99.90
5621;DHT22;2832;50.864;12.186;2023-04-01T07:05:20;13.40;99.90
5621;DHT22;2832;50.864;12.186;2023-04-01T07:07:52;13.40;99.90
5621;DHT22;2832;50.864;12.186;2023-04-01T07:10:32;13.40;99.90
5621;DHT22;2832;50.864;12.186;2023-04-01T07:13:09;13.40;99.90
5621;DHT22;2832;50.864;12.186;2023-04-01T07:15:42;13.40;99.90
5621;DHT22;2832;50.864;12.186;2023-04-01T07:18:16;13.40;99.90
5621;DHT22;2832;50.864;12.186;2023-04-01T07:20:45;13.40;99.90
5621;DHT22;2832;50.864;12.186;2023-04-01T07:23:20;13.40;99.90
5621;DHT22;2832;50.864;12.186;2023-04-01T07:25:52;13.40;99.90
5621;DHT22;2832;50.864;12.186;2023-04-01T07:28:21;13.40;99.90
5621;DHT22;2832;50.864;12.186;2023-04-01T07:31:04;13.40;99.90
5621;DHT22;2832;50.864;12.186;2023-04-01T07:33:41;13.40;99.90
5621;DHT22;2832;50.864;12.186;2023-04-01T07:36:17;13.50;99.90
5621;DHT22;2832;50.864;12.186;2023-04-01T07:38:57;13.40;99.90
5621;DHT22;2832;50.864;12.186;2023-04-01T07:41:33;13.40;99.90
5621;DHT22;2832;50.864;12.186;2023-04-01T07:44:09;13.30;99.90
5621;DHT22;2832;50.864;12.186;2023-04-01T07:46:51;13.30;99.90
5621;DHT22;2832;50.864;12.186;2023-04-01T07:49:29;13.30;99.90
5621;DHT22;2832;50.864;12.186;2023-04-01T07:52:01;13.30;99.90
5621;DHT22;2832;50.864;12.186;2023-04-01T07:54:37;13.30;99.90
5621;DHT22;2832;50.864;12.186;2023-04-01T07:57:12;13.30;99.90
5621;DHT22;2832;50.864;12.186;2023-04-01T07:59:51;13.30;99.90
5621;DHT22;2832;50.864;12.186;2023-04-01T08:02:31;13.40;99.90
5621;DHT22;2832;50.864;12.186;2023-04-01T08:05:13;13.30;99.90
5621;DHT22;2832;50.864;12.186;2023-04-01T08:07:45;13.30;99.90
5621;DHT22;2832;50.864;12.186;2023-04-01T08:10:19;13.30;99.90
5621;DHT22;2832;50.864;12.186;2023-04-01T08:13:00;13.40;99.90
5621;DHT22;2832;50.864;12.186;2023-04-01T08:15:35;13.30;99.90
5621;DHT22;2832;50.864;12.186;2023-04-01T08:18:16;13.30;99.90
5621;DHT22;2832;50.864;12.186;2023-04-01T08:20:52;13.40;99.90
5621;DHT22;2832;50.864;12.186;2023-04-01T08:23:25;13.40;99.90
5621;DHT22;2832;50.864;12.186;2023-04-01T08:25:58;13.40;99.90
5621;DHT22;2832;50.864;12.186;2023-04-01T08:28:41;13.40;99.90
5621;DHT22;2832;50.864;12.186;2023-04-01T08:31:16;13.30;99.90
5621;DHT22;2832;50.864;12.186;2023-04-01T08:33:47;13.30;99.90
5621;DHT22;2832;50.864;12.186;2023-04-01T08:36:20;13.30;99.90
5621;DHT22;2832;50.864;12.186;2023-04-01T08:38:53;13.30;99.90
5621;DHT22;2832;50.864;12.186;2023-04-01T08:41:56;13.30;99.90
5621;DHT22;2832;50.864;12.186;2023-04-01T08:44:41;13.20;99.90
5621;DHT22;2832;50.864;12.186;2023-04-01T08:50:49;13.30;99.90
5621;DHT22;2832;50.864;12.186;2023-04-01T08:53:35;13.30;99.90
5621;DHT22;2832;50.864;12.186;2023-04-01T08:56:12;13.30;99.90
5621;DHT22;2832;50.864;12.186;2023-04-01T08:59:00;13.30;99.90
5621;DHT22;2832;50.864;12.186;2023-04-01T09:08:08;13.30;99.90
5621;DHT22;2832;50.864;12.186;2023-04-01T09:11:02;13.30;99.90
5621;DHT22;2832;50.864;12.186;2023-04-01T09:14:07;13.30;99.90
5621;DHT22;2832;50.864;12.186;2023-04-01T09:17:07;13.30;99.90
5621;DHT22;2832;50.864;12.186;2023-04-01T09:19:55;13.30;99.90
5621;DHT22;2832;50.864;12.186;2023-04-01T09:22:43;13.40;99.90
5621;DHT22;2832;50.864;12.186;2023-04-01T09:28:33;13.40;99.90
5621;DHT22;2832;50.864;12.186;2023-04-01T09:31:23;13.40;99.90
5621;DHT22;2832;50.864;12.186;2023-04-01T09:37:07;13.50;99.90
5621;DHT22;2832;50.864;12.186;2023-04-01T09:42:43;13.50;99.90
5621;DHT22;2832;50.864;12.186;2023-04-01T09:51:06;13.50;99.90
5621;DHT22;2832;50.864;12.186;2023-04-01T09:53:49;13.40;99.90
5621;DHT22;2832;50.864;12.186;2023-04-01T09:57:01;13.50;99.90
5621;DHT22;2832;50.864;12.186;2023-04-01T10:00:07;13.50;99.90
5621;DHT22;2832;50.864;12.186;2023-04-01T10:09:25;13.40;99.90
5621;DHT22;2832;50.864;12.186;2023-04-01T10:12:37;13.40;99.90
5621;DHT22;2832;50.864;12.186;2023-04-01T10:15:29;13.50;99.90
5621;DHT22;2832;50.864;12.186;2023-04-01T10:21:25;13.50;99.90
5621;DHT22;2832;50.864;12.186;2023-04-01T10:24:13;13.40;99.90
5621;DHT22;2832;50.864;12.186;2023-04-01T10:27:20;13.40;99.90
5621;DHT22;2832;50.864;12.186;2023-04-01T10:30:19;13.40;99.90
5621;DHT22;2832;50.864;12.186;2023-04-01T10:39:49;13.50;99.90
5621;DHT22;2832;50.864;12.186;2023-04-01T10:43:06;13.50;99.90
5621;DHT22;2832;50.864;12.186;2023-04-01T10:45:54;13.50;99.90
5621;DHT22;2832;50.864;12.186;2023-04-01T10:48:53;13.50;99.90
5621;DHT22;2832;50.864;12.186;2023-04-01T10:54:46;13.60;99.90
5621;DHT22;2832;50.864;12.186;2023-04-01T11:00:58;13.50;99.90
5621;DHT22;2832;50.864;12.186;2023-04-01T11:13:26;13.50;99.90
5621;DHT22;2832;50.864;12.186;2023-04-01T11:22:36;13.50;99.90
5621;DHT22;2832;50.864;12.186;2023-04-01T11:25:29;13.50;99.90
5621;DHT22;2832;50.864;12.186;2023-04-01T11:28:27;13.60;99.90
5621;DHT22;2832;50.864;12.186;2023-04-01T11:31:21;13.60;99.90
5621;DHT22;2832;50.864;12.186;2023-04-01T11:33:55;13.60;99.90
5621;DHT22;2832;50.864;12.186;2023-04-01T11:36:39;13.60;99.90
5621;DHT22;2832;50.864;12.186;2023-04-01T11:39:23;13.60;99.90
5621;DHT22;2832;50.864;12.186;2023-04-01T11:42:06;13.60;99.90
5621;DHT22;2832;50.864;12.186;2023-04-01T11:44:46;13.60;99.90
5621;DHT22;2832;50.864;12.186;2023-04-01T11:47:35;13.60;99.90
5621;DHT22;2832;50.864;12.186;2023-04-01T11:50:18;13.60;99.90
5621;DHT22;2832;50.864;12.186;2023-04-01T11:53:16;13.60;99.90
5621;DHT22;2832;50.864;12.186;2023-04-01T11:55:56;13.60;99.90
5621;DHT22;2832;50.864;12.186;2023-04-01T12:01:53;13.60;99.90
5621;DHT22;2832;50.864;12.186;2023-04-01T12:04:51;13.70;99.90
5621;DHT22;2832;50.864;12.186;2023-04-01T12:07:35;13.70;99.90
5621;DHT22;2832;50.864;12.186;2023-04-01T12:10:15;13.70;99.90
5621;DHT22;2832;50.864;12.186;2023-04-01T12:12:51;13.70;99.90
5621;DHT22;2832;50.864;12.186;2023-04-01T12:15:30;13.70;99.90
5621;DHT22;2832;50.864;12.186;2023-04-01T12:18:11;13.70;99.90
5621;DHT22;2832;50.864;12.186;2023-04-01T12:20:49;13.70;99.90
5621;DHT22;2832;50.864;12.186;2023-04-01T12:23:42;13.60;99.90
5621;DHT22;2832;50.864;12.186;2023-04-01T12:26:47;13.60;99.90
5621;DHT22;2832;50.864;12.186;2023-04-01T12:29:39;13.70;99.90
5621;DHT22;2832;50.864;12.186;2023-04-01T12:32:24;13.70;99.90
5621;DHT22;2832;50.864;12.186;2023-04-01T12:35:20;13.70;99.90
5621;DHT22;2832;50.864;12.186;2023-04-01T12:38:06;13.70;99.90
5621;DHT22;2832;50.864;12.186;2023-04-01T12:40:55;13.70;99.90
5621;DHT22;2832;50.864;12.186;2023-04-01T12:46:47;13.60;99.90
5621;DHT22;2832;50.864;12.186;2023-04-01T12:49:34;13.60;99.90
5621;DHT22;2832;50.864;12.186;2023-04-01T12:52:14;13.70;99.90
5621;DHT22;2832;50.864;12.186;2023-04-01T12:58:20;13.60;99.90
5621;DHT22;2832;50.864;12.186;2023-04-01T13:07:16;13.70;99.90
5621;DHT22;2832;50.864;12.186;2023-04-01T13:09:54;13.70;99.90
5621;DHT22;2832;50.864;12.186;2023-04-01T13:12:36;13.70;99.90
5621;DHT22;2832;50.864;12.186;2023-04-01T13:15:21;13.80;99.90
5621;DHT22;2832;50.864;12.186;2023-04-01T13:17:53;13.80;99.90
5621;DHT22;2832;50.864;12.186;2023-04-01T13:20:34;13.80;99.90
5621;DHT22;2832;50.864;12.186;2023-04-01T13:23:16;13.80;99.90
5621;DHT22;2832;50.864;12.186;2023-04-01T13:25:52;13.80;99.90
5621;DHT22;2832;50.864;12.186;2023-04-01T13:28:24;13.80;99.90
5621;DHT22;2832;50.864;12.186;2023-04-01T13:30:59;13.80;99.90
5621;DHT22;2832;50.864;12.186;2023-04-01T13:33:37;13.80;99.90
5621;DHT22;2832;50.864;12.186;2023-04-01T13:36:18;13.80;99.90
5621;DHT22;2832;50.864;12.186;2023-04-01T13:39:16;13.80;99.90
5621;DHT22;2832;50.864;12.186;2023-04-01T13:42:00;13.80;99.90
5621;DHT22;2832;50.864;12.186;2023-04-01T13:44:34;13.80;99.90
5621;DHT22;2832;50.864;12.186;2023-04-01T13:47:21;13.80;99.90
5621;DHT22;2832;50.864;12.186;2023-04-01T13:50:15;13.70;99.90
5621;DHT22;2832;50.864;12.186;2023-04-01T13:55:50;13.80;99.90
5621;DHT22;2832;50.864;12.186;2023-04-01T13:58:56;13.80;99.90
5621;DHT22;2832;50.864;12.186;2023-04-01T14:01:35;13.80;99.90
5621;DHT22;2832;50.864;12.186;2023-04-01T14:04:29;13.80;99.90
5621;DHT22;2832;50.864;12.186;2023-04-01T14:07:14;13.80;99.90
5621;DHT22;2832;50.864;12.186;2023-04-01T14:09:59;13.80;99.90
5621;DHT22;2832;50.864;12.186;2023-04-01T14:12:40;13.80;99.90
5621;DHT22;2832;50.864;12.186;2023-04-01T14:15:29;13.80;99.90
5621;DHT22;2832;50.864;12.186;2023-04-01T14:21:23;13.80;99.90
5621;DHT22;2832;50.864;12.186;2023-04-01T14:24:15;13.80;99.90
5621;DHT22;2832;50.864;12.186;2023-04-01T14:29:56;13.90;99.90
5621;DHT22;2832;50.864;12.186;2023-04-01T14:32:35;13.80;99.90
5621;DHT22;2832;50.864;12.186;2023-04-01T14:35:25;13.90;99.90
5621;DHT22;2832;50.864;12.186;2023-04-01T14:38:10;13.90;99.90
5621;DHT22;2832;50.864;12.186;2023-04-01T14:40:55;13.90;99.90
5621;DHT22;2832;50.864;12.186;2023-04-01T14:44:05;13.90;99.90
5621;DHT22;2832;50.864;12.186;2023-04-01T14:49:51;14.00;99.90
5621;DHT22;2832;50.864;12.186;2023-04-01T14:52:27;14.00;99.90
5621;DHT22;2832;50.864;12.186;2023-04-01T14:54:56;13.90;99.90
5621;DHT22;2832;50.864;12.186;2023-04-01T14:57:26;13.90;99.90
5621;DHT22;2832;50.864;12.186;2023-04-01T15:00:09;13.90;99.90
5621;DHT22;2832;50.864;12.186;2023-04-01T15:02:52;14.00;99.90
5621;DHT22;2832;50.864;12.186;2023-04-01T15:05:32;13.90;99.90
5621;DHT22;2832;50.864;12.186;2023-04-01T15:08:19;13.90;99.90
5621;DHT22;2832;50.864;12.186;2023-04-01T15:16:59;13.90;99.90
5621;DHT22;2832;50.864;12.186;2023-04-01T15:19:41;13.90;99.90
5621;DHT22;2832;50.864;12.186;2023-04-01T15:22:38;13.90;99.90
5621;DHT22;2832;50.864;12.186;2023-04-01T15:25:29;13.90;99.90
5621;DHT22;2832;50.864;12.186;2023-04-01T15:28:08;14.00;99.90
5621;DHT22;2832;50.864;12.186;2023-04-01T15:30:44;14.00;99.90
5621;DHT22;2832;50.864;12.186;2023-04-01T15:33:27;14.00;99.90
5621;DHT22;2832;50.864;12.186;2023-04-01T15:36:02;14.00;99.90
5621;DHT22;2832;50.864;12.186;2023-04-01T15:38:36;14.00;99.90
5621;DHT22;2832;50.864;12.186;2023-04-01T15:41:14;14.00;99.90
5621;DHT22;2832;50.864;12.186;2023-04-01T15:43:44;14.00;99.90
5621;DHT22;2832;50.864;12.186;2023-04-01T15:46:29;14.00;99.90
5621;DHT22;2832;50.864;12.186;2023-04-01T15:49:08;14.00;99.90
5621;DHT22;2832;50.864;12.186;2023-04-01T15:52:02;13.90;99.90
5621;DHT22;2832;50.864;12.186;2023-04-01T15:54:55;14.00;99.90
5621;DHT22;2832;50.864;12.186;2023-04-01T15:57:36;14.00;99.90
5621;DHT22;2832;50.864;12.186;2023-04-01T16:00:19;14.00;99.90
5621;DHT22;2832;50.864;12.186;2023-04-01T16:02:52;14.00;99.90
5621;DHT22;2832;50.864;12.186;2023-04-01T16:05:34;14.10;99.90
5621;DHT22;2832;50.864;12.186;2023-04-01T16:08:30;14.00;99.90
5621;DHT22;2832;50.864;12.186;2023-04-01T16:11:06;14.00;99.90
5621;DHT22;2832;50.864;12.186;2023-04-01T16:13:53;14.10;99.90
5621;DHT22;2832;50.864;12.186;2023-04-01T16:16:33;14.00;99.90
5621;DHT22;2832;50.864;12.186;2023-04-01T16:19:43;14.10;99.90
5621;DHT22;2832;50.864;12.186;2023-04-01T16:22:19;14.10;99.90
5621;DHT22;2832;50.864;12.186;2023-04-01T16:25:14;14.10;99.90
5621;DHT22;2832;50.864;12.186;2023-04-01T16:27:49;14.10;99.90
5621;DHT22;2832;50.864;12.186;2023-04-01T16:30:35;14.10;99.90
5621;DHT22;2832;50.864;12.186;2023-04-01T16:33:05;14.10;99.90
5621;DHT22;2832;50.864;12.186;2023-04-01T16:35:43;14.00;99.90
5621;DHT22;2832;50.864;12.186;2023-04-01T16:38:18;14.00;99.90
5621;DHT22;2832;50.864;12.186;2023-04-01T16:41:00;14.10;99.90
5621;DHT22;2832;50.864;12.186;2023-04-01T16:43:39;14.10;99.90
5621;DHT22;2832;50.864;12.186;2023-04-01T16:46:32;14.10;99.90
5621;DHT22;2832;50.864;12.186;2023-04-01T16:49:15;14.10;99.90
5621;DHT22;2832;50.864;12.186;2023-04-01T16:51:52;14.10;99.90
5621;DHT22;2832;50.864;12.186;2023-04-01T16:54:36;14.10;99.90
5621;DHT22;2832;50.864;12.186;2023-04-01T16:57:18;14.10;99.90
5621;DHT22;2832;50.864;12.186;2023-04-01T16:59:57;14.10;99.90
5621;DHT22;2832;50.864;12.186;2023-04-01T17:02:31;14.10;99.90
5621;DHT22;2832;50.864;12.186;2023-04-01T17:05:04;14.10;99.90
5621;DHT22;2832;50.864;12.186;2023-04-01T17:07:45;14.10;99.90
5621;DHT22;2832;50.864;12.186;2023-04-01T17:10:27;14.10;99.90
5621;DHT22;2832;50.864;12.186;2023-04-01T17:13:16;14.10;99.90
5621;DHT22;2832;50.864;12.186;2023-04-01T17:15:56;14.10;99.90
5621;DHT22;2832;50.864;12.186;2023-04-01T17:18:35;14.10;99.90
5621;DHT22;2832;50.864;12.186;2023-04-01T17:21:10;14.10;99.90
5621;DHT22;2832;50.864;12.186;2023-04-01T17:23:43;14.10;99.90
5621;DHT22;2832;50.864;12.186;2023-04-01T17:26:24;14.10;99.90
5621;DHT22;2832;50.864;12.186;2023-04-01T17:29:03;14.10;99.90
5621;DHT22;2832;50.864;12.186;2023-04-01T17:31:52;14.10;99.90
5621;DHT22;2832;50.864;12.186;2023-04-01T17:34:39;14.10;99.90
5621;DHT22;2832;50.864;12.186;2023-04-01T17:37:29;14.10;99.90
5621;DHT22;2832;50.864;12.186;2023-04-01T17:40:15;14.10;99.90
5621;DHT22;2832;50.864;12.186;2023-04-01T17:42:55;14.10;99.90
5621;DHT22;2832;50.864;12.186;2023-04-01T17:45:36;14.10;99.90
5621;DHT22;2832;50.864;12.186;2023-04-01T17:48:18;14.10;99.90
5621;DHT22;2832;50.864;12.186;2023-04-01T17:50:59;14.10;99.90
5621;DHT22;2832;50.864;12.186;2023-04-01T17:53:36;14.10;99.90
5621;DHT22;2832;50.864;12.186;2023-04-01T17:56:27;14.10;99.90
5621;DHT22;2832;50.864;12.186;2023-04-01T17:59:06;14.10;99.90
5621;DHT22;2832;50.864;12.186;2023-04-01T18:01:46;14.10;99.90
5621;DHT22;2832;50.864;12.186;2023-04-01T18:04:47;14.20;99.90
5621;DHT22;2832;50.864;12.186;2023-04-01T18:07:31;14.10;99.90
5621;DHT22;2832;50.864;12.186;2023-04-01T18:10:17;14.10;99.90
5621;DHT22;2832;50.864;12.186;2023-04-01T18:15:57;14.10;99.90
5621;DHT22;2832;50.864;12.186;2023-04-01T18:18:48;14.10;99.90
5621;DHT22;2832;50.864;12.186;2023-04-01T18:21:33;14.10;99.90
5621;DHT22;2832;50.864;12.186;2023-04-01T18:24:16;14.20;99.90
5621;DHT22;2832;50.864;12.186;2023-04-01T18:26:50;14.20;99.90
5621;DHT22;2832;50.864;12.186;2023-04-01T18:29:35;14.10;99.90
5621;DHT22;2832;50.864;12.186;2023-04-01T18:32:15;14.20;99.90
5621;DHT22;2832;50.864;12.186;2023-04-01T18:34:55;14.20;99.90
5621;DHT22;2832;50.864;12.186;2023-04-01T18:37:28;14.20;99.90